Overview Statistics Trail Chart Weather Telemetry Raw packets
 

This is the latest recevied weather packets stored in our database for station/object W4UWO. If no packets are shown the sender has not sent any weather packets the latest 10 day(s).

<< 60 61 62 63 64 65 66 >>
Time Temp. Humidity Pressure Rain* Wind** Luminosity Snow
1788210678 35° C 43% 1019.5 hPa 0 mm - 492 W/m² -
1788210386 34.44° C 44% 1019.6 hPa 0 mm - 487 W/m² -
1788210069 34.44° C 45% 1019.6 hPa 0 mm - 413 W/m² -
1788209768 34.44° C 46% 1019.4 hPa 0 mm - 212 W/m² -
1788209470 35° C 44% 1019.4 hPa 0 mm - 111 W/m² -
1788209159 34.44° C 43% 1019.7 hPa 0 mm - 158 W/m² -
1788208857 33.89° C 44% 1019.6 hPa 0 mm - 626 W/m² -
1788208552 34.44° C 44% 1019.6 hPa 0 mm - 146 W/m² -
1788208252 35° C 43% 1019.6 hPa 0 mm - 152 W/m² -
1788207951 35.56° C 42% 1019.6 hPa 0 mm - 143 W/m² -
1788207650 36.67° C 41% 1019.8 hPa 0 mm - 680 W/m² -
1788207349 36.67° C 41% 1019.9 hPa 0 mm - 707 W/m² -
1788207045 36.11° C 41% 1019.8 hPa 0 mm - 713 W/m² -
1788206741 35.56° C 43% 1019.9 hPa 0 mm - 719 W/m² -
1788206441 35° C 44% 1019.9 hPa 0 mm - 733 W/m² -
1788206137 35° C 44% 1020 hPa 0 mm - 711 W/m² -
1788205831 34.44° C 45% 1020.1 hPa 0 mm - 741 W/m² -
1788205526 35° C 44% 1020.2 hPa 0 mm - 200 W/m² -
1788205227 34.44° C 44% 1020.2 hPa 0 mm - 254 W/m² -
1788204922 34.44° C 44% 1020.3 hPa 0 mm - 174 W/m² -
1788204617 34.44° C 46% 1020.2 hPa 0 mm - 789 W/m² -
1788204312 35° C 44% 1020.5 hPa 0 mm - 266 W/m² -
1788204007 33.89° C 47% 1020.3 hPa 0 mm - 842 W/m² -
1788203703 35.56° C 44% 1020.4 hPa 0 mm - 181 W/m² -
1788203399 35.56° C 42% 1020.4 hPa 0 mm - 810 W/m² -

* Rain latest hour (hover to see other rain measurements)
** Current wind speed in m/s (hover to see current wind gust speed)